Time;durP1;ratioP1;P1;durP2;ratioP2;P2;SDS_P1;SDS_P2;PMS_P1;PMS_P2;Temp;Humidity;BMP_temperature;BMP_pressure;BME280_temperature;BME280_humidity;BME280_pressure;Samples;Min_cycle;Max_cycle;Signal;HPM_P1;HPM_P2
2024/01/25 00:01:57;;;;;;;20.25;9.75;;;;;;;3.21;66.51;94459.50;5103694;28;20250;-76
2024/01/25 00:04:22;;;;;;;17.42;8.77;;;;;;;3.22;66.65;94450.56;5104029;28;20030;-76
2024/01/25 00:06:48;;;;;;;18.27;9.02;;;;;;;3.05;66.21;94443.84;5103517;28;20032;-76
2024/01/25 00:09:13;;;;;;;18.45;9.35;;;;;;;3.02;67.22;94442.50;5103649;28;20098;-78
2024/01/25 00:11:38;;;;;;;21.85;9.50;;;;;;;3.04;66.81;94437.78;5103700;28;20132;-77
2024/01/25 00:14:04;;;;;;;23.17;9.45;;;;;;;3.03;66.85;94424.84;5102488;28;20028;-77
2024/01/25 00:16:30;;;;;;;26.25;9.80;;;;;;;3.08;66.88;94432.81;5103390;28;20013;-76
2024/01/25 00:18:55;;;;;;;16.85;8.90;;;;;;;3.16;67.30;94414.69;5103889;28;20073;-77
2024/01/25 00:21:21;;;;;;;26.13;10.20;;;;;;;3.21;67.33;94391.00;5103585;28;20081;-77
2024/01/25 00:23:46;;;;;;;20.15;10.05;;;;;;;3.21;67.35;94367.28;5103494;28;20024;-77
2024/01/25 00:26:12;;;;;;;34.17;12.38;;;;;;;3.27;66.84;94336.50;5103029;28;20271;-77
2024/01/25 00:28:38;;;;;;;43.95;15.30;;;;;;;3.27;66.06;94315.44;5103283;28;20016;-80
2024/01/25 00:31:04;;;;;;;31.65;12.73;;;;;;;3.26;65.51;94308.59;5103388;28;20035;-84
2024/01/25 00:33:29;;;;;;;35.03;13.88;;;;;;;3.31;65.68;94310.47;5103317;28;20020;-81
2024/01/25 00:35:55;;;;;;;40.58;15.38;;;;;;;3.36;65.99;94318.41;5104327;28;20031;-83
2024/01/25 00:38:21;;;;;;;44.15;17.55;;;;;;;3.44;65.99;94314.47;5102133;28;20024;-83
2024/01/25 00:40:46;;;;;;;33.05;13.93;;;;;;;3.50;66.15;94323.97;5103519;28;20024;-84
2024/01/25 00:43:12;;;;;;;40.72;15.98;;;;;;;3.52;65.98;94327.16;5103210;28;20028;-83
2024/01/25 00:45:38;;;;;;;35.50;13.38;;;;;;;3.50;66.47;94347.69;5103413;28;20012;-84
2024/01/25 00:48:04;;;;;;;32.95;14.73;;;;;;;3.50;65.80;94356.41;5103241;28;20092;-83
2024/01/25 00:50:29;;;;;;;30.85;12.15;;;;;;;3.47;65.65;94351.66;5103058;28;20143;-83
2024/01/25 00:52:55;;;;;;;23.13;11.25;;;;;;;3.47;65.77;94340.31;5103529;28;20056;-84
2024/01/25 00:55:21;;;;;;;24.35;10.18;;;;;;;3.32;66.06;94320.75;5101873;28;20024;-83
2024/01/25 00:57:46;;;;;;;25.55;11.05;;;;;;;3.23;66.36;94324.91;5103308;28;20219;-83
2024/01/25 01:00:12;;;;;;;26.33;9.85;;;;;;;3.02;66.32;94331.91;5102975;28;20020;-83
2024/01/25 01:02:47;;;;;;;23.20;9.48;;;;;;;3.00;66.97;94326.88;5103210;28;20051;-83
2024/01/25 01:05:13;;;;;;;19.27;9.00;;;;;;;3.08;66.74;94332.72;5103070;28;20028;-83
2024/01/25 01:07:40;;;;;;;21.67;9.68;;;;;;;3.12;66.86;94339.88;5103177;28;20027;-83
2024/01/25 01:10:07;;;;;;;21.65;9.23;;;;;;;3.12;66.67;94333.81;5104623;28;20353;-83
2024/01/25 01:12:33;;;;;;;22.60;10.05;;;;;;;3.15;67.14;94344.59;5103100;28;20032;-83
2024/01/25 01:14:58;;;;;;;21.67;10.55;;;;;;;3.19;67.58;94342.25;5103183;28;20098;-83
2024/01/25 01:17:23;;;;;;;28.75;12.50;;;;;;;3.28;67.22;94342.56;5102218;28;20023;-84
2024/01/25 01:19:49;;;;;;;24.88;11.35;;;;;;;3.37;66.57;94333.94;5102826;28;20031;-84
2024/01/25 01:22:14;;;;;;;26.83;11.50;;;;;;;3.44;66.63;94335.53;5103118;28;20082;-84
2024/01/25 01:24:39;;;;;;;23.45;11.55;;;;;;;3.55;66.51;94327.44;5102943;28;20048;-82
2024/01/25 01:27:05;;;;;;;25.17;11.13;;;;;;;3.63;66.05;94297.16;5102869;28;20033;-80
2024/01/25 01:29:30;;;;;;;28.75;13.18;;;;;;;3.62;65.72;94277.09;5102691;28;20099;-81
2024/01/25 01:31:55;;;;;;;22.20;11.68;;;;;;;3.58;65.70;94278.66;5102802;28;20020;-80
2024/01/25 01:34:21;;;;;;;21.30;9.57;;;;;;;3.65;65.79;94271.34;5102592;28;20027;-81
2024/01/25 01:36:46;;;;;;;17.38;7.72;;;;;;;3.73;65.92;94280.59;5102803;28;20043;-81
2024/01/25 01:39:12;;;;;;;10.00;4.72;;;;;;;3.98;65.91;94274.56;5104368;28;20312;-82
2024/01/25 01:41:37;;;;;;;12.43;4.80;;;;;;;4.29;64.87;94277.25;5106641;28;20024;-82
2024/01/25 01:44:02;;;;;;;3.15;0.98;;;;;;;5.09;68.05;94268.72;5106754;28;20032;-82
2024/01/25 01:46:39;;;;;;;0.50;0.20;;;;;;;6.01;66.76;94255.16;5106534;28;20024;-82
2024/01/25 01:49:07;;;;;;;0.90;0.32;;;;;;;6.60;65.23;94262.13;5106703;28;20024;-82
2024/01/25 01:51:33;;;;;;;1.92;0.28;;;;;;;6.98;63.57;94241.13;5106394;28;20103;-82
2024/01/25 01:54:01;;;;;;;0.20;0.20;;;;;;;7.17;61.96;94235.13;5106260;28;20047;-82
2024/01/25 01:56:30;;;;;;;2.67;0.30;;;;;;;7.30;60.48;94245.03;5106558;28;20156;-81
2024/01/25 01:58:59;;;;;;;1.35;0.50;;;;;;;7.37;59.90;94244.72;5106478;28;20032;-82
2024/01/25 02:01:25;;;;;;;0.73;0.35;;;;;;;7.42;59.37;94241.97;5106567;28;20044;-82
2024/01/25 02:03:51;;;;;;;1.00;0.40;;;;;;;7.44;59.24;94251.22;5106188;28;20032;-81
2024/01/25 02:06:16;;;;;;;1.73;0.35;;;;;;;7.53;59.09;94245.28;5106255;28;20337;-82
2024/01/25 02:08:41;;;;;;;0.95;0.47;;;;;;;7.46;59.63;94227.06;5106394;28;20024;-82
2024/01/25 02:11:08;;;;;;;1.88;0.60;;;;;;;7.42;59.75;94234.81;5106185;28;20096;-82
2024/01/25 02:13:34;;;;;;;1.17;0.50;;;;;;;7.41;60.17;94225.28;5105995;28;20034;-81
2024/01/25 02:16:00;;;;;;;5.38;0.50;;;;;;;7.39;60.31;94247.88;5104910;28;20028;-82
2024/01/25 02:18:26;;;;;;;1.05;0.60;;;;;;;7.37;60.70;94242.06;5106114;28;20098;-82
2024/01/25 02:20:51;;;;;;;1.45;0.47;;;;;;;7.40;60.74;94239.59;5106070;28;20016;-82
2024/01/25 02:23:17;;;;;;;1.17;0.47;;;;;;;7.41;60.43;94249.16;5105831;28;20376;-80
2024/01/25 02:25:42;;;;;;;1.02;0.40;;;;;;;7.33;61.47;94239.16;5105955;28;20023;-81
2024/01/25 02:28:07;;;;;;;0.60;0.20;;;;;;;7.33;61.23;94255.09;5105789;28;20020;-81
2024/01/25 02:30:33;;;;;;;2.45;0.32;;;;;;;7.36;61.14;94235.94;5105823;28;20326;-81
2024/01/25 02:32:58;;;;;;;0.60;0.50;;;;;;;7.37;61.83;94266.69;5105704;28;20024;-81
2024/01/25 02:35:23;;;;;;;0.75;0.40;;;;;;;7.39;62.54;94218.69;5104467;28;20032;-83
2024/01/25 02:37:50;;;;;;;0.35;0.25;;;;;;;7.43;62.97;94239.06;5105709;28;20099;-82
2024/01/25 02:40:16;;;;;;;2.33;0.40;;;;;;;7.50;62.99;94227.31;5105384;28;20252;-82
2024/01/25 02:42:42;;;;;;;0.82;0.40;;;;;;;7.52;62.80;94231.25;5105767;28;20024;-82
2024/01/25 02:45:07;;;;;;;2.78;0.80;;;;;;;7.47;60.29;94222.56;5105644;28;20192;-82
2024/01/25 02:47:33;;;;;;;1.55;0.60;;;;;;;7.32;62.10;94226.19;5105260;28;20047;-82
2024/01/25 02:49:58;;;;;;;0.63;0.38;;;;;;;7.35;62.06;94213.16;5105224;28;20020;-82
2024/01/25 02:52:23;;;;;;;1.55;0.80;;;;;;;7.32;62.71;94205.75;5105482;28;20023;-82
2024/01/25 02:54:49;;;;;;;2.88;0.68;;;;;;;7.39;62.23;94213.38;5105256;28;20032;-82
2024/01/25 02:57:15;;;;;;;3.03;0.95;;;;;;;7.34;60.33;94208.13;5103981;28;20024;-82
2024/01/25 02:59:41;;;;;;;2.97;1.50;;;;;;;7.26;59.24;94227.31;5105107;28;20117;-82
2024/01/25 03:02:06;;;;;;;5.45;1.23;;;;;;;6.98;60.79;94222.59;5104822;28;20051;-82
2024/01/25 03:04:31;;;;;;;0.82;0.50;;;;;;;6.98;63.59;94222.59;5105092;28;20045;-82
2024/01/25 03:06:57;;;;;;;1.88;0.73;;;;;;;7.04;63.53;94233.91;5105264;28;20275;-81
2024/01/25 03:09:23;;;;;;;0.43;0.40;;;;;;;7.05;64.42;94224.09;5104699;28;20020;-82
2024/01/25 03:11:49;;;;;;;0.68;0.40;;;;;;;7.08;64.17;94245.53;5104936;28;20055;-83
2024/01/25 03:14:14;;;;;;;1.67;0.47;;;;;;;7.11;64.16;94217.69;5104865;28;20024;-82
2024/01/25 03:16:40;;;;;;;1.15;0.50;;;;;;;7.12;63.89;94222.69;5104859;28;20226;-81
2024/01/25 03:19:05;;;;;;;1.27;0.73;;;;;;;7.06;64.07;94226.47;5103493;28;20054;-81
2024/01/25 03:21:30;;;;;;;1.52;0.50;;;;;;;7.09;64.24;94227.78;5104623;28;20424;-81
2024/01/25 03:23:56;;;;;;;1.40;0.50;;;;;;;7.05;64.27;94224.09;5104780;28;20056;-82
2024/01/25 03:26:21;;;;;;;0.93;0.63;;;;;;;7.06;63.83;94212.41;5104584;28;20334;-81
2024/01/25 03:28:47;;;;;;;1.30;0.75;;;;;;;6.98;64.51;94219.94;5104577;28;20019;-82
2024/01/25 03:31:12;;;;;;;1.58;0.55;;;;;;;6.92;64.12;94207.81;5104413;28;20096;-82
2024/01/25 03:33:37;;;;;;;1.30;0.60;;;;;;;6.79;64.18;94205.81;5104590;28;20195;-82
2024/01/25 03:36:03;;;;;;;2.67;0.47;;;;;;;6.82;63.95;94197.31;5103291;28;20030;-82
2024/01/25 03:38:29;;;;;;;0.90;0.32;;;;;;;6.80;63.56;94199.47;5104264;28;20020;-81
2024/01/25 03:40:56;;;;;;;5.07;0.60;;;;;;;6.81;63.63;94185.13;5104646;28;20022;-82
2024/01/25 03:43:23;;;;;;;3.10;0.70;;;;;;;6.87;63.75;94181.34;5104561;28;20026;-82
2024/01/25 03:45:49;;;;;;;1.23;0.68;;;;;;;6.89;63.47;94192.47;5103192;28;20237;-83
2024/01/25 03:48:14;;;;;;;0.93;0.30;;;;;;;6.97;62.93;94157.38;5104574;28;20030;-82
2024/01/25 03:50:40;;;;;;;0.68;0.40;;;;;;;7.02;62.46;94164.47;5104496;28;20040;-83
2024/01/25 03:53:06;;;;;;;1.55;0.65;;;;;;;7.02;62.32;94181.19;5103018;28;20023;-83
2024/01/25 03:55:32;;;;;;;0.95;0.40;;;;;;;7.07;62.37;94150.41;5103477;28;20065;-83
2024/01/25 03:57:57;;;;;;;1.58;0.63;;;;;;;7.14;61.72;94156.13;5103387;28;20047;-82
2024/01/25 04:00:23;;;;;;;1.63;0.57;;;;;;;7.12;61.82;94123.81;5104483;28;20057;-82
2024/01/25 04:02:48;;;;;;;1.00;0.43;;;;;;;7.09;62.86;94151.69;5102535;28;20024;-83
2024/01/25 04:05:14;;;;;;;0.75;0.30;;;;;;;7.13;62.79;94143.97;5104372;28;20046;-82
2024/01/25 04:07:40;;;;;;;2.17;0.47;;;;;;;7.16;62.33;94160.06;5103984;28;20111;-81
2024/01/25 04:10:05;;;;;;;2.95;0.60;;;;;;;7.14;62.61;94183.44;5104245;28;20024;-81
2024/01/25 04:12:32;;;;;;;0.75;0.55;;;;;;;7.11;62.97;94125.69;5104277;28;20056;-82
2024/01/25 04:14:58;;;;;;;1.67;0.50;;;;;;;7.10;62.95;94147.97;5104055;28;20080;-82
2024/01/25 04:17:23;;;;;;;1.65;0.50;;;;;;;7.08;61.83;94144.81;5104464;28;20028;-80
2024/01/25 04:19:49;;;;;;;2.00;0.45;;;;;;;7.09;61.37;94169.47;5104167;28;20099;-82
2024/01/25 04:22:14;;;;;;;0.32;0.30;;;;;;;7.08;61.12;94160.69;5104099;28;20273;-82
2024/01/25 04:24:40;;;;;;;0.60;0.45;;;;;;;7.12;60.52;94147.69;5103882;28;20028;-82
2024/01/25 04:27:05;;;;;;;3.13;0.60;;;;;;;7.12;60.25;94137.06;5104245;28;20024;-81
2024/01/25 04:29:31;;;;;;;1.33;0.68;;;;;;;7.10;59.85;94142.66;5102657;28;20028;-81
2024/01/25 04:31:56;;;;;;;1.45;0.50;;;;;;;7.08;59.42;94136.84;5104323;28;20016;-82
2024/01/25 04:34:22;;;;;;;3.65;0.77;;;;;;;7.02;58.85;94130.84;5104166;28;20039;-83
2024/01/25 04:36:47;;;;;;;1.75;0.50;;;;;;;7.04;58.50;94141.13;5103398;28;20024;-83
2024/01/25 04:39:12;;;;;;;0.70;0.43;;;;;;;7.11;58.75;94154.84;5103719;28;20036;-82
2024/01/25 04:41:38;;;;;;;1.50;0.50;;;;;;;7.04;57.86;94151.75;5102544;28;20031;-83
2024/01/25 04:44:04;;;;;;;2.22;0.70;;;;;;;6.99;58.21;94170.38;5103675;28;20020;-83
2024/01/25 04:46:35;;;;;;;2.00;0.60;;;;;;;6.94;58.55;94179.16;5103430;28;20020;-83
2024/01/25 04:49:01;;;;;;;1.73;0.77;;;;;;;6.91;57.79;94192.19;5102065;28;20027;-83
2024/01/25 04:51:26;;;;;;;4.15;1.25;;;;;;;6.89;57.42;94208.34;5103094;28;20051;-83
2024/01/25 04:53:52;;;;;;;6.43;0.93;;;;;;;6.85;57.31;94222.44;5102074;28;20016;-82
2024/01/25 04:56:17;;;;;;;6.18;1.08;;;;;;;6.88;57.09;94190.09;5102779;28;20040;-82
2024/01/25 04:58:43;;;;;;;1.17;0.50;;;;;;;6.86;56.68;94193.03;5102665;28;20065;-82
2024/01/25 05:01:08;;;;;;;4.05;0.80;;;;;;;6.87;56.37;94194.59;5102955;28;20036;-82
2024/01/25 05:03:33;;;;;;;0.90;0.52;;;;;;;6.80;56.47;94225.94;5101682;28;20027;-86
2024/01/25 05:05:59;;;;;;;2.17;0.70;;;;;;;6.70;56.30;94220.75;5103776;28;20020;-86
2024/01/25 05:08:24;;;;;;;1.70;0.63;;;;;;;6.68;55.69;94201.69;5103167;28;20043;-85
2024/01/25 05:10:50;;;;;;;2.15;0.60;;;;;;;6.64;55.33;94201.47;5103321;28;20023;-84
2024/01/25 05:13:15;;;;;;;3.90;0.65;;;;;;;6.59;55.46;94206.78;5103046;28;20310;-84
2024/01/25 05:15:41;;;;;;;5.22;1.05;;;;;;;6.54;55.90;94217.44;5107249;28;20024;-84
2024/01/25 05:18:06;;;;;;;2.28;0.90;;;;;;;6.46;55.69;94250.59;5107178;28;20061;-84
2024/01/25 05:20:32;;;;;;;2.47;0.90;;;;;;;6.45;55.97;94243.72;5107295;28;20051;-86
2024/01/25 05:23:01;;;;;;;4.88;1.00;;;;;;;6.51;55.39;94250.53;5107228;28;20016;-84
2024/01/25 05:25:27;;;;;;;1.33;0.70;;;;;;;6.43;56.12;94277.63;5106967;28;20088;-85
2024/01/25 05:27:54;;;;;;;3.20;0.82;;;;;;;6.35;56.13;94249.91;5107788;28;20102;-85
2024/01/25 05:30:24;;;;;;;2.97;0.90;;;;;;;6.32;56.40;94257.59;5106668;28;20262;-82
2024/01/25 05:32:50;;;;;;;2.83;0.88;;;;;;;6.30;56.52;94259.72;5106996;28;20245;-82
2024/01/25 05:35:16;;;;;;;2.65;0.85;;;;;;;6.24;56.88;94253.66;5106631;28;20049;-81
2024/01/25 05:37:42;;;;;;;5.88;0.93;;;;;;;6.29;56.25;94232.47;5105257;28;20031;-81
2024/01/25 05:40:09;;;;;;;3.30;1.20;;;;;;;6.25;56.45;94265.84;5106540;28;20024;-81
2024/01/25 05:42:34;;;;;;;4.90;1.70;;;;;;;6.25;56.47;94251.81;5106726;28;20229;-81
2024/01/25 05:45:00;;;;;;;2.42;0.98;;;;;;;6.27;56.45;94271.66;5106549;28;20047;-81
2024/01/25 05:47:25;;;;;;;5.60;1.17;;;;;;;6.23;57.24;94266.13;5106592;28;20032;-81
2024/01/25 05:49:51;;;;;;;4.57;1.10;;;;;;;6.25;56.95;94281.75;5106450;28;20095;-81
2024/01/25 05:52:17;;;;;;;7.40;1.13;;;;;;;6.17;57.48;94275.16;5106070;28;20102;-83
2024/01/25 05:54:43;;;;;;;3.05;1.15;;;;;;;6.06;58.01;94268.34;5106175;28;20016;-83
2024/01/25 05:57:09;;;;;;;4.57;1.05;;;;;;;6.01;58.13;94273.69;5106433;28;20019;-83
2024/01/25 05:59:34;;;;;;;2.83;0.90;;;;;;;5.92;58.60;94314.97;5106390;28;20016;-83
2024/01/25 06:02:00;;;;;;;6.10;1.35;;;;;;;5.92;58.88;94291.97;5106140;28;20038;-83
2024/01/25 06:04:25;;;;;;;6.30;1.80;;;;;;;5.92;58.75;94275.28;5106275;28;20124;-83
2024/01/25 06:06:51;;;;;;;4.28;1.15;;;;;;;5.85;59.17;94290.66;5104912;28;20024;-84
2024/01/25 06:09:16;;;;;;;5.53;1.20;;;;;;;5.81;59.82;94285.91;5105915;28;20034;-83
2024/01/25 06:11:41;;;;;;;3.45;1.60;;;;;;;5.84;59.64;94297.78;5105909;28;20341;-82
2024/01/25 06:14:08;;;;;;;5.15;1.10;;;;;;;5.85;59.54;94295.97;5104635;28;20101;-83
2024/01/25 06:16:33;;;;;;;4.50;1.02;;;;;;;5.82;59.53;94303.38;5106128;28;20028;-83
2024/01/25 06:19:00;;;;;;;3.85;1.25;;;;;;;5.78;59.59;94312.91;5106165;28;20034;-83
2024/01/25 06:21:25;;;;;;;4.50;1.40;;;;;;;5.76;59.49;94315.03;5106531;28;20035;-83
2024/01/25 06:23:51;;;;;;;3.33;1.25;;;;;;;5.74;59.89;94297.84;5106373;28;20016;-82
2024/01/25 06:26:16;;;;;;;4.68;1.38;;;;;;;5.65;60.31;94318.78;5107174;28;20033;-84
2024/01/25 06:28:42;;;;;;;5.13;1.35;;;;;;;5.69;59.83;94293.38;5106495;28;20024;-84
2024/01/25 06:31:07;;;;;;;6.53;1.60;;;;;;;5.65;60.50;94287.03;5104898;28;20031;-84
2024/01/25 06:33:32;;;;;;;7.63;1.08;;;;;;;5.60;60.48;94306.38;5105078;28;20244;-84
2024/01/25 06:36:00;;;;;;;5.88;1.45;;;;;;;5.62;60.21;94296.31;5105907;28;20054;-84
2024/01/25 06:38:25;;;;;;;7.53;2.35;;;;;;;5.70;60.47;94305.56;5105713;28;20035;-82
2024/01/25 06:40:51;;;;;;;4.25;1.08;;;;;;;5.71;59.87;94325.63;5105474;28;20024;-79
2024/01/25 06:43:16;;;;;;;5.22;1.25;;;;;;;5.71;59.73;94315.06;5105235;28;20031;-82
2024/01/25 06:45:42;;;;;;;7.28;1.42;;;;;;;5.73;59.83;94309.50;5105491;28;20023;-83
2024/01/25 06:48:10;;;;;;;13.05;2.17;;;;;;;5.72;59.84;94319.28;5105586;28;20089;-82
2024/01/25 06:50:36;;;;;;;8.52;2.03;;;;;;;5.74;59.68;94309.25;5105467;28;20031;-84
2024/01/25 06:53:01;;;;;;;8.90;1.65;;;;;;;5.75;59.50;94317.97;5104229;28;20241;-84
2024/01/25 06:55:27;;;;;;;5.38;1.70;;;;;;;5.72;59.27;94319.28;5103964;28;20069;-83
2024/01/25 06:57:52;;;;;;;9.98;2.05;;;;;;;5.80;59.14;94324.03;5105648;28;20065;-83
2024/01/25 07:00:20;;;;;;;11.05;1.58;;;;;;;5.81;59.08;94338.03;5105027;28;20057;-84
2024/01/25 07:02:46;;;;;;;7.05;1.90;;;;;;;5.77;59.29;94334.34;5104852;28;20121;-81
2024/01/25 07:05:14;;;;;;;7.15;1.67;;;;;;;5.75;58.93;94331.97;5105002;28;20214;-80
2024/01/25 07:07:40;;;;;;;7.45;1.90;;;;;;;5.74;58.73;94317.16;5105045;28;20091;-80
2024/01/25 07:10:09;;;;;;;3.15;1.10;;;;;;;5.79;59.06;94322.44;5105535;28;20222;-79
2024/01/25 07:12:35;;;;;;;6.78;1.20;;;;;;;5.68;58.72;94334.13;5109396;28;20061;-79
2024/01/25 07:15:00;;;;;;;10.85;2.00;;;;;;;5.64;58.64;94290.78;5108184;28;20173;-82
2024/01/25 07:17:58;;;;;;;8.05;2.05;;;;;;;5.59;58.62;94273.03;5110678;28;20036;-82
2024/01/25 07:20:24;;;;;;;13.50;2.13;;;;;;;5.59;58.57;94273.03;5110731;28;20028;-78
2024/01/25 07:22:49;;;;;;;6.85;1.50;;;;;;;5.59;58.43;94285.50;5104508;28;20027;-79
2024/01/25 07:25:15;;;;;;;5.22;1.65;;;;;;;5.61;58.33;94280.72;5104618;28;20020;-82
2024/01/25 07:27:45;;;;;;;5.38;1.70;;;;;;;5.67;58.60;94289.44;5104259;28;20059;-81
2024/01/25 07:30:12;;;;;;;7.80;1.90;;;;;;;5.62;57.87;94325.41;5104615;28;20020;-80
2024/01/25 07:32:38;;;;;;;4.13;1.45;;;;;;;5.59;58.34;94304.78;5104632;28;20076;-80
2024/01/25 07:35:28;;;;;;;7.68;1.75;;;;;;;5.66;58.06;94306.34;5104145;28;20039;-80
2024/01/25 07:37:54;;;;;;;7.18;1.80;;;;;;;5.66;58.27;94303.69;5102342;28;20020;-81
2024/01/25 07:40:19;;;;;;;8.32;1.42;;;;;;;5.62;58.08;94308.75;5104386;28;20211;-81
2024/01/25 07:42:47;;;;;;;9.55;1.95;;;;;;;5.67;57.93;94294.72;5102639;28;20103;-81
2024/01/25 07:45:13;;;;;;;11.13;2.30;;;;;;;5.66;57.82;94309.00;5102304;28;20020;-80
2024/01/25 07:47:41;;;;;;;5.30;1.90;;;;;;;5.72;57.43;94307.91;5102593;28;20187;-79
2024/01/25 07:50:07;;;;;;;7.53;2.10;;;;;;;5.74;57.50;94305.78;5102844;28;20020;-78
2024/01/25 07:52:32;;;;;;;7.38;1.67;;;;;;;5.66;57.42;94317.72;5103092;28;20047;-79
2024/01/25 07:54:58;;;;;;;6.57;1.75;;;;;;;5.69;57.33;94334.91;5103065;28;20027;-78
2024/01/25 07:57:23;;;;;;;7.95;1.75;;;;;;;5.74;57.37;94342.81;5103434;28;20024;-78
2024/01/25 07:59:48;;;;;;;6.82;2.03;;;;;;;5.70;57.18;94342.56;5103781;28;20190;-78
2024/01/25 08:02:14;;;;;;;7.68;1.67;;;;;;;5.75;57.28;94339.91;5103795;28;20125;-79
2024/01/25 08:04:40;;;;;;;4.72;1.80;;;;;;;5.77;57.22;94355.50;5103721;28;20020;-80
2024/01/25 08:07:05;;;;;;;7.38;1.55;;;;;;;5.73;57.13;94325.38;5103544;28;20020;-77
2024/01/25 08:09:30;;;;;;;4.03;1.33;;;;;;;5.72;56.79;94326.41;5103526;28;20573;-79
2024/01/25 08:11:56;;;;;;;8.57;1.58;;;;;;;5.76;57.08;94301.81;5103882;28;20341;-78
2024/01/25 08:14:21;;;;;;;7.75;1.67;;;;;;;5.69;56.27;94321.69;5103737;28;20398;-79
2024/01/25 08:16:47;;;;;;;3.53;1.15;;;;;;;5.76;56.08;94322.97;5103747;28;20345;-78
2024/01/25 08:19:12;;;;;;;5.05;1.83;;;;;;;5.70;56.24;94310.03;5103719;28;20024;-78
2024/01/25 08:21:37;;;;;;;7.80;1.75;;;;;;;5.74;56.16;94297.84;5103559;28;20054;-79
2024/01/25 08:24:04;;;;;;;11.90;1.95;;;;;;;5.78;55.96;94314.75;5103392;28;20086;-79
2024/01/25 08:26:29;;;;;;;13.05;2.53;;;;;;;5.82;55.41;94302.56;5103276;28;20024;-78
2024/01/25 08:28:55;;;;;;;7.72;3.17;;;;;;;6.00;56.29;94301.19;5103512;28;20087;-82
2024/01/25 08:31:20;;;;;;;5.07;1.75;;;;;;;6.31;55.15;94301.00;5103713;28;20016;-75
2024/01/25 08:33:47;;;;;;;4.45;1.35;;;;;;;6.43;53.81;94304.09;5103336;28;20024;-81
2024/01/25 08:36:22;;;;;;;5.07;1.35;;;;;;;6.45;52.68;94304.63;5103413;28;20016;-81
2024/01/25 08:38:48;;;;;;;5.00;1.40;;;;;;;6.47;54.19;94291.88;5103622;28;20050;-81
2024/01/25 08:41:15;;;;;;;6.68;1.95;;;;;;;6.53;53.42;94311.97;5103241;28;20027;-81
2024/01/25 08:43:40;;;;;;;10.52;1.90;;;;;;;6.55;52.86;94309.84;5103483;28;20023;-83
2024/01/25 08:46:06;;;;;;;4.32;1.52;;;;;;;6.30;53.59;94318.75;5103642;28;20086;-74
2024/01/25 08:48:31;;;;;;;4.45;1.33;;;;;;;6.15;54.39;94321.50;5102589;28;20020;-74
2024/01/25 08:50:57;;;;;;;5.75;1.50;;;;;;;6.05;54.18;94314.41;5102976;28;20031;-74
2024/01/25 08:53:26;;;;;;;14.07;2.08;;;;;;;5.95;55.57;94322.41;5103311;28;20051;-74
2024/01/25 08:55:52;;;;;;;6.63;2.03;;;;;;;5.97;55.68;94323.69;5103029;28;20032;-74
2024/01/25 08:58:18;;;;;;;12.80;2.00;;;;;;;5.98;55.12;94327.13;5101468;28;20096;-74
2024/01/25 09:00:43;;;;;;;12.82;1.98;;;;;;;5.97;55.47;94328.22;5102839;28;20043;-74
2024/01/25 09:03:08;;;;;;;7.65;2.03;;;;;;;5.95;56.20;94327.69;5102765;28;20319;-73
2024/01/25 09:05:38;;;;;;;6.47;1.77;;;;;;;6.01;56.20;94324.75;5102680;28;20016;-74
2024/01/25 09:08:03;;;;;;;6.32;1.80;;;;;;;6.05;56.01;94338.22;5102603;28;20065;-74
2024/01/25 09:10:29;;;;;;;10.40;2.00;;;;;;;6.07;56.07;94332.66;5102829;28;20020;-74
2024/01/25 09:12:54;;;;;;;13.73;2.08;;;;;;;6.10;56.29;94338.19;5101390;28;20021;-75
2024/01/25 09:15:19;;;;;;;9.07;1.83;;;;;;;6.18;55.38;94324.38;5102697;28;20028;-74
2024/01/25 09:17:45;;;;;;;8.55;2.42;;;;;;;6.17;55.79;94337.91;5102462;28;20035;-74
2024/01/25 09:20:10;;;;;;;7.18;1.75;;;;;;;6.13;55.68;94337.66;5102370;28;20024;-74
2024/01/25 09:22:37;;;;;;;6.95;1.83;;;;;;;6.11;55.65;94334.50;5102617;28;20087;-74
2024/01/25 09:25:03;;;;;;;10.77;2.03;;;;;;;6.13;56.21;94334.22;5102572;28;20035;-75
2024/01/25 09:27:28;;;;;;;8.90;1.80;;;;;;;6.23;55.62;94329.66;5102644;28;20318;-74
2024/01/25 09:29:53;;;;;;;7.82;2.15;;;;;;;6.33;55.34;94320.88;5102747;28;20064;-74
2024/01/25 09:32:20;;;;;;;20.50;3.38;;;;;;;6.45;55.59;94323.16;5102573;28;20126;-75
2024/01/25 09:34:46;;;;;;;17.27;4.10;;;;;;;6.56;55.86;94323.91;5102461;28;20028;-74
2024/01/25 09:37:11;;;;;;;12.02;2.42;;;;;;;6.70;54.65;94326.72;5102506;28;20077;-74
2024/01/25 09:39:37;;;;;;;13.02;2.80;;;;;;;6.77;54.28;94332.47;5102560;28;20047;-75
2024/01/25 09:42:06;;;;;;;15.30;2.55;;;;;;;6.85;54.94;94328.44;5102458;28;20085;-75
2024/01/25 09:44:32;;;;;;;9.60;2.88;;;;;;;6.77;54.69;94337.75;5101177;28;20024;-74
2024/01/25 09:46:58;;;;;;;7.10;1.60;;;;;;;6.67;54.59;94308.72;5102456;28;20023;-75
2024/01/25 09:49:23;;;;;;;7.05;2.00;;;;;;;6.67;54.56;94306.06;5102385;28;20020;-75
2024/01/25 09:51:51;;;;;;;11.80;2.30;;;;;;;6.76;54.67;94302.53;5102304;28;20020;-74
2024/01/25 09:54:16;;;;;;;13.80;2.30;;;;;;;6.80;55.29;94294.84;5102265;28;20028;-75
2024/01/25 09:56:42;;;;;;;6.80;2.20;;;;;;;6.78;54.14;94281.84;5102100;28;20322;-74
2024/01/25 09:59:08;;;;;;;7.93;2.03;;;;;;;6.74;54.71;94295.94;5101115;28;20028;-75
2024/01/25 10:01:34;;;;;;;10.30;2.92;;;;;;;6.70;54.54;94281.69;5105878;28;20085;-75
2024/01/25 10:04:00;;;;;;;11.77;2.42;;;;;;;6.77;54.76;94267.00;5105931;28;20032;-75
2024/01/25 10:06:26;;;;;;;11.93;2.10;;;;;;;6.82;54.09;94287.41;5106297;28;20158;-75
2024/01/25 10:08:52;;;;;;;7.20;1.70;;;;;;;6.67;54.39;94275.06;5106093;28;20093;-75
2024/01/25 10:11:18;;;;;;;6.25;1.65;;;;;;;6.51;54.42;94284.19;5105886;28;20069;-73
2024/01/25 10:13:50;;;;;;;6.30;1.60;;;;;;;6.52;54.46;94254.78;5105647;28;20020;-74
2024/01/25 10:16:16;;;;;;;;;;;;;;;6.50;54.72;94280.75;5106188;28;20234;-74
2024/01/25 10:18:42;;;;;;;8.75;2.00;;;;;;;6.40;55.36;94264.94;5104572;28;19953;-74
2024/01/25 10:21:12;;;;;;;5.82;2.33;;;;;;;6.49;55.60;94263.28;5105844;28;20034;-74
2024/01/25 10:23:43;;;;;;;7.90;1.75;;;;;;;6.52;54.94;94260.09;5105677;28;20024;-73
2024/01/25 10:26:09;;;;;;;11.18;2.22;;;;;;;6.55;55.38;94272.75;5105590;28;20223;-73
2024/01/25 10:28:35;;;;;;;10.80;2.38;;;;;;;6.61;55.72;94257.63;5104346;28;20028;-73
2024/01/25 10:31:03;;;;;;;13.07;3.10;;;;;;;6.72;55.79;94259.13;5105378;28;20039;-73
2024/01/25 10:33:30;;;;;;;8.75;2.03;;;;;;;6.74;55.13;94251.69;5105429;28;20064;-73
2024/01/25 10:36:01;;;;;;;5.80;1.80;;;;;;;6.79;54.29;94256.16;5105467;28;20023;-73
2024/01/25 10:38:32;;;;;;;11.07;2.42;;;;;;;6.79;54.65;94251.63;5105541;28;20024;-73
2024/01/25 10:41:01;;;;;;;7.60;2.33;;;;;;;6.78;54.61;94238.69;5105369;28;20034;-74
2024/01/25 10:43:28;;;;;;;12.65;2.80;;;;;;;6.86;54.56;94264.56;5105130;28;20326;-74
2024/01/25 10:45:57;;;;;;;7.10;2.25;;;;;;;6.86;54.50;94261.94;5105405;28;20016;-74
2024/01/25 10:48:22;;;;;;;9.95;2.08;;;;;;;6.92;53.89;94249.41;5105476;28;20028;-75
2024/01/25 10:50:48;;;;;;;8.70;2.25;;;;;;;6.86;52.50;94248.69;5105135;28;20103;-75
2024/01/25 10:53:16;;;;;;;11.77;2.17;;;;;;;6.81;53.14;94252.16;5105299;28;20047;-75
2024/01/25 10:55:41;;;;;;;8.05;2.13;;;;;;;6.80;52.90;94239.19;5104933;28;20042;-75
2024/01/25 10:58:10;;;;;;;19.27;2.60;;;;;;;6.86;53.54;94230.13;5105100;28;20028;-75
2024/01/25 11:00:36;;;;;;;6.93;1.63;;;;;;;6.88;51.47;94228.00;5105132;28;20218;-75
2024/01/25 11:03:02;;;;;;;11.25;2.08;;;;;;;6.96;51.35;94251.22;5105190;28;20028;-75
2024/01/25 11:05:28;;;;;;;14.20;2.75;;;;;;;6.93;51.16;94230.56;5105048;28;20211;-74
2024/01/25 11:07:54;;;;;;;15.93;2.60;;;;;;;6.95;51.21;94227.66;5105100;28;20061;-74
2024/01/25 11:10:21;;;;;;;6.63;1.70;;;;;;;6.99;51.19;94221.50;5104944;28;20020;-74
2024/01/25 11:12:54;;;;;;;11.57;2.38;;;;;;;7.08;52.00;94218.22;5104827;28;20028;-74
2024/01/25 11:15:22;;;;;;;17.77;3.08;;;;;;;7.19;52.33;94204.59;5104667;28;20046;-74
2024/01/25 11:17:54;;;;;;;8.50;2.47;;;;;;;7.30;51.30;94191.22;5104703;28;20223;-74
2024/01/25 11:20:21;;;;;;;8.02;2.20;;;;;;;7.32;50.31;94189.84;5104540;28;20038;-74
2024/01/25 11:22:47;;;;;;;10.02;2.03;;;;;;;7.25;49.48;94178.81;5104614;28;20322;-74
2024/01/25 11:25:21;;;;;;;8.75;2.30;;;;;;;7.12;50.57;94198.03;5104611;28;20027;-74
2024/01/25 11:27:50;;;;;;;9.00;2.45;;;;;;;6.87;50.96;94181.34;5104396;28;20023;-74
2024/01/25 11:30:19;;;;;;;13.30;2.70;;;;;;;6.89;51.08;94187.16;5104407;28;20084;-74
2024/01/25 11:32:46;;;;;;;11.05;2.08;;;;;;;6.90;51.09;94170.19;5104251;28;20364;-73
2024/01/25 11:35:16;;;;;;;5.82;1.65;;;;;;;6.80;51.03;94175.63;5104270;28;20247;-73